sensor_id;sensor_type;location;lat;lon;timestamp;P1;durP1;ratioP1;P2;durP2;ratioP2
57389;SDS011;43217;52.694;6.214;2023-02-28T00:00:47;7.13;;;4.90;;
57389;SDS011;43217;52.694;6.214;2023-02-28T00:03:12;6.80;;;5.35;;
57389;SDS011;43217;52.694;6.214;2023-02-28T00:05:38;10.13;;;7.63;;
57389;SDS011;43217;52.694;6.214;2023-02-28T00:08:04;12.80;;;10.27;;
57389;SDS011;43217;52.694;6.214;2023-02-28T00:10:30;15.48;;;10.23;;
57389;SDS011;43217;52.694;6.214;2023-02-28T00:12:59;7.53;;;5.30;;
57389;SDS011;43217;52.694;6.214;2023-02-28T00:15:26;16.77;;;11.82;;
57389;SDS011;43217;52.694;6.214;2023-02-28T00:17:52;16.65;;;8.88;;
57389;SDS011;43217;52.694;6.214;2023-02-28T00:20:18;10.57;;;6.10;;
57389;SDS011;43217;52.694;6.214;2023-02-28T00:22:45;13.13;;;8.45;;
57389;SDS011;43217;52.694;6.214;2023-02-28T00:25:13;22.92;;;12.85;;
57389;SDS011;43217;52.694;6.214;2023-02-28T00:27:40;11.65;;;6.50;;
57389;SDS011;43217;52.694;6.214;2023-02-28T00:30:09;8.52;;;5.13;;
57389;SDS011;43217;52.694;6.214;2023-02-28T00:32:40;8.77;;;5.10;;
57389;SDS011;43217;52.694;6.214;2023-02-28T00:35:06;8.05;;;5.43;;
57389;SDS011;43217;52.694;6.214;2023-02-28T00:37:32;13.88;;;8.75;;
57389;SDS011;43217;52.694;6.214;2023-02-28T00:39:58;18.75;;;9.65;;
57389;SDS011;43217;52.694;6.214;2023-02-28T00:42:24;31.70;;;17.30;;
57389;SDS011;43217;52.694;6.214;2023-02-28T00:44:49;20.35;;;12.38;;
57389;SDS011;43217;52.694;6.214;2023-02-28T00:47:16;28.27;;;16.08;;
57389;SDS011;43217;52.694;6.214;2023-02-28T00:49:41;21.02;;;11.80;;
57389;SDS011;43217;52.694;6.214;2023-02-28T00:52:07;15.65;;;8.82;;
57389;SDS011;43217;52.694;6.214;2023-02-28T00:54:32;7.90;;;4.85;;
57389;SDS011;43217;52.694;6.214;2023-02-28T00:56:58;14.88;;;8.45;;
57389;SDS011;43217;52.694;6.214;2023-02-28T00:59:24;16.15;;;10.88;;
57389;SDS011;43217;52.694;6.214;2023-02-28T01:01:50;18.00;;;9.70;;
57389;SDS011;43217;52.694;6.214;2023-02-28T01:04:16;13.98;;;8.48;;
57389;SDS011;43217;52.694;6.214;2023-02-28T01:06:42;13.40;;;8.23;;
57389;SDS011;43217;52.694;6.214;2023-02-28T01:09:08;11.50;;;7.95;;
57389;SDS011;43217;52.694;6.214;2023-02-28T01:11:34;9.25;;;7.53;;
57389;SDS011;43217;52.694;6.214;2023-02-28T01:14:00;8.70;;;7.10;;
57389;SDS011;43217;52.694;6.214;2023-02-28T01:16:27;12.02;;;8.13;;
57389;SDS011;43217;52.694;6.214;2023-02-28T01:18:53;9.70;;;7.60;;
57389;SDS011;43217;52.694;6.214;2023-02-28T01:21:19;7.00;;;4.93;;
57389;SDS011;43217;52.694;6.214;2023-02-28T01:23:46;8.30;;;5.07;;
57389;SDS011;43217;52.694;6.214;2023-02-28T01:26:13;9.60;;;4.97;;
57389;SDS011;43217;52.694;6.214;2023-02-28T01:28:41;7.72;;;4.97;;
57389;SDS011;43217;52.694;6.214;2023-02-28T01:31:07;7.22;;;4.82;;
57389;SDS011;43217;52.694;6.214;2023-02-28T01:33:34;5.90;;;4.65;;
57389;SDS011;43217;52.694;6.214;2023-02-28T01:36:00;7.20;;;5.13;;
57389;SDS011;43217;52.694;6.214;2023-02-28T01:38:28;9.52;;;4.90;;
57389;SDS011;43217;52.694;6.214;2023-02-28T01:40:54;9.20;;;5.35;;
57389;SDS011;43217;52.694;6.214;2023-02-28T01:43:21;6.00;;;4.90;;
57389;SDS011;43217;52.694;6.214;2023-02-28T01:45:53;8.95;;;5.47;;
57389;SDS011;43217;52.694;6.214;2023-02-28T01:48:21;8.00;;;5.15;;
57389;SDS011;43217;52.694;6.214;2023-02-28T01:50:51;7.03;;;5.18;;
57389;SDS011;43217;52.694;6.214;2023-02-28T01:53:19;9.93;;;5.88;;
57389;SDS011;43217;52.694;6.214;2023-02-28T01:55:50;7.38;;;5.15;;
57389;SDS011;43217;52.694;6.214;2023-02-28T01:58:18;9.60;;;5.38;;
57389;SDS011;43217;52.694;6.214;2023-02-28T02:00:44;7.45;;;4.85;;
57389;SDS011;43217;52.694;6.214;2023-02-28T02:03:10;7.53;;;5.65;;
57389;SDS011;43217;52.694;6.214;2023-02-28T02:05:39;6.32;;;4.97;;
57389;SDS011;43217;52.694;6.214;2023-02-28T02:08:09;8.70;;;5.20;;
57389;SDS011;43217;52.694;6.214;2023-02-28T02:16:00;9.63;;;5.50;;
57389;SDS011;43217;52.694;6.214;2023-02-28T02:18:37;7.07;;;5.07;;
57389;SDS011;43217;52.694;6.214;2023-02-28T02:21:44;8.68;;;5.28;;
57389;SDS011;43217;52.694;6.214;2023-02-28T02:36:35;8.75;;;6.03;;
57389;SDS011;43217;52.694;6.214;2023-02-28T02:39:13;8.07;;;5.55;;
57389;SDS011;43217;52.694;6.214;2023-02-28T02:41:54;9.00;;;6.00;;
57389;SDS011;43217;52.694;6.214;2023-02-28T02:44:30;9.15;;;6.53;;
57389;SDS011;43217;52.694;6.214;2023-02-28T02:47:21;9.60;;;6.57;;
57389;SDS011;43217;52.694;6.214;2023-02-28T02:49:55;11.38;;;7.30;;
57389;SDS011;43217;52.694;6.214;2023-02-28T02:52:25;10.43;;;7.25;;
57389;SDS011;43217;52.694;6.214;2023-02-28T02:55:00;10.65;;;7.50;;
57389;SDS011;43217;52.694;6.214;2023-02-28T02:57:40;10.48;;;7.72;;
57389;SDS011;43217;52.694;6.214;2023-02-28T03:00:12;11.18;;;8.43;;
57389;SDS011;43217;52.694;6.214;2023-02-28T03:02:41;13.18;;;8.20;;
57389;SDS011;43217;52.694;6.214;2023-02-28T03:05:12;13.40;;;9.05;;
57389;SDS011;43217;52.694;6.214;2023-02-28T03:07:43;13.68;;;9.02;;
57389;SDS011;43217;52.694;6.214;2023-02-28T03:29:40;15.85;;;11.80;;
57389;SDS011;43217;52.694;6.214;2023-02-28T03:32:16;14.40;;;10.90;;
57389;SDS011;43217;52.694;6.214;2023-02-28T03:35:30;14.05;;;10.70;;
57389;SDS011;43217;52.694;6.214;2023-02-28T03:37:47;14.15;;;11.63;;
57389;SDS011;43217;52.694;6.214;2023-02-28T03:40:17;18.05;;;13.05;;
57389;SDS011;43217;52.694;6.214;2023-02-28T03:42:47;17.90;;;12.75;;
57389;SDS011;43217;52.694;6.214;2023-02-28T03:45:18;19.30;;;12.75;;
57389;SDS011;43217;52.694;6.214;2023-02-28T03:47:52;17.38;;;12.73;;
57389;SDS011;43217;52.694;6.214;2023-02-28T03:50:42;18.50;;;13.07;;
57389;SDS011;43217;52.694;6.214;2023-02-28T03:55:42;19.92;;;13.80;;
57389;SDS011;43217;52.694;6.214;2023-02-28T03:58:17;20.45;;;13.98;;
57389;SDS011;43217;52.694;6.214;2023-02-28T04:00:49;18.95;;;14.52;;
57389;SDS011;43217;52.694;6.214;2023-02-28T04:03:20;22.35;;;15.40;;
57389;SDS011;43217;52.694;6.214;2023-02-28T04:05:50;20.58;;;15.05;;
57389;SDS011;43217;52.694;6.214;2023-02-28T04:08:18;21.10;;;15.05;;
57389;SDS011;43217;52.694;6.214;2023-02-28T04:10:44;23.10;;;15.93;;
57389;SDS011;43217;52.694;6.214;2023-02-28T04:13:15;24.42;;;16.85;;
57389;SDS011;43217;52.694;6.214;2023-02-28T04:15:40;25.67;;;17.33;;
57389;SDS011;43217;52.694;6.214;2023-02-28T04:18:06;22.23;;;16.65;;
57389;SDS011;43217;52.694;6.214;2023-02-28T04:20:31;23.90;;;16.27;;
57389;SDS011;43217;52.694;6.214;2023-02-28T04:22:57;24.83;;;18.13;;
57389;SDS011;43217;52.694;6.214;2023-02-28T04:25:23;24.75;;;17.10;;
57389;SDS011;43217;52.694;6.214;2023-02-28T04:27:48;27.13;;;18.52;;
57389;SDS011;43217;52.694;6.214;2023-02-28T04:30:14;24.52;;;17.92;;
57389;SDS011;43217;52.694;6.214;2023-02-28T04:32:40;28.45;;;17.88;;
57389;SDS011;43217;52.694;6.214;2023-02-28T04:35:06;26.25;;;18.35;;
57389;SDS011;43217;52.694;6.214;2023-02-28T04:37:32;24.38;;;18.38;;
57389;SDS011;43217;52.694;6.214;2023-02-28T04:40:00;24.20;;;18.67;;
57389;SDS011;43217;52.694;6.214;2023-02-28T04:42:26;23.45;;;17.80;;
57389;SDS011;43217;52.694;6.214;2023-02-28T04:44:52;29.83;;;19.17;;
57389;SDS011;43217;52.694;6.214;2023-02-28T04:47:17;28.40;;;19.35;;
57389;SDS011;43217;52.694;6.214;2023-02-28T04:49:43;26.35;;;18.42;;
57389;SDS011;43217;52.694;6.214;2023-02-28T04:52:09;24.88;;;18.80;;
57389;SDS011;43217;52.694;6.214;2023-02-28T04:54:35;28.33;;;20.10;;
57389;SDS011;43217;52.694;6.214;2023-02-28T04:59:29;27.60;;;19.05;;
57389;SDS011;43217;52.694;6.214;2023-02-28T05:01:55;28.70;;;18.90;;
57389;SDS011;43217;52.694;6.214;2023-02-28T05:04:20;31.02;;;19.83;;
57389;SDS011;43217;52.694;6.214;2023-02-28T05:06:46;28.85;;;19.42;;
57389;SDS011;43217;52.694;6.214;2023-02-28T05:09:11;29.08;;;19.90;;
57389;SDS011;43217;52.694;6.214;2023-02-28T05:11:37;29.77;;;19.13;;
57389;SDS011;43217;52.694;6.214;2023-02-28T05:14:05;26.92;;;19.92;;
57389;SDS011;43217;52.694;6.214;2023-02-28T05:16:34;25.55;;;18.73;;
57389;SDS011;43217;52.694;6.214;2023-02-28T05:18:59;24.55;;;18.67;;
57389;SDS011;43217;52.694;6.214;2023-02-28T05:21:26;29.13;;;19.20;;
57389;SDS011;43217;52.694;6.214;2023-02-28T05:23:58;28.38;;;19.92;;
57389;SDS011;43217;52.694;6.214;2023-02-28T05:26:26;28.25;;;19.73;;
57389;SDS011;43217;52.694;6.214;2023-02-28T05:28:53;30.33;;;20.25;;
57389;SDS011;43217;52.694;6.214;2023-02-28T05:31:19;27.38;;;18.85;;
57389;SDS011;43217;52.694;6.214;2023-02-28T05:33:45;30.75;;;21.25;;
57389;SDS011;43217;52.694;6.214;2023-02-28T05:36:11;32.35;;;22.08;;
57389;SDS011;43217;52.694;6.214;2023-02-28T05:38:37;30.42;;;20.63;;
57389;SDS011;43217;52.694;6.214;2023-02-28T05:41:09;31.55;;;20.73;;
57389;SDS011;43217;52.694;6.214;2023-02-28T05:43:35;26.25;;;19.02;;
57389;SDS011;43217;52.694;6.214;2023-02-28T05:46:02;28.33;;;20.35;;
57389;SDS011;43217;52.694;6.214;2023-02-28T05:48:29;30.95;;;20.60;;
57389;SDS011;43217;52.694;6.214;2023-02-28T05:50:56;33.17;;;21.35;;
57389;SDS011;43217;52.694;6.214;2023-02-28T05:53:22;30.52;;;25.92;;
57389;SDS011;43217;52.694;6.214;2023-02-28T05:55:48;30.00;;;23.48;;
57389;SDS011;43217;52.694;6.214;2023-02-28T05:58:14;35.33;;;23.95;;
57389;SDS011;43217;52.694;6.214;2023-02-28T06:00:39;39.53;;;27.83;;
57389;SDS011;43217;52.694;6.214;2023-02-28T06:03:05;27.83;;;21.67;;
57389;SDS011;43217;52.694;6.214;2023-02-28T06:05:30;28.20;;;19.98;;
57389;SDS011;43217;52.694;6.214;2023-02-28T06:07:56;33.55;;;25.58;;
57389;SDS011;43217;52.694;6.214;2023-02-28T06:10:21;24.13;;;18.58;;
57389;SDS011;43217;52.694;6.214;2023-02-28T06:12:47;21.95;;;17.23;;
57389;SDS011;43217;52.694;6.214;2023-02-28T06:15:14;20.55;;;16.05;;
57389;SDS011;43217;52.694;6.214;2023-02-28T06:17:41;21.23;;;15.43;;
57389;SDS011;43217;52.694;6.214;2023-02-28T06:20:08;18.73;;;14.93;;
57389;SDS011;43217;52.694;6.214;2023-02-28T06:22:35;18.20;;;14.38;;
57389;SDS011;43217;52.694;6.214;2023-02-28T06:25:01;16.05;;;14.35;;
57389;SDS011;43217;52.694;6.214;2023-02-28T06:27:27;16.48;;;14.70;;
57389;SDS011;43217;52.694;6.214;2023-02-28T06:29:54;17.05;;;13.82;;
57389;SDS011;43217;52.694;6.214;2023-02-28T06:32:21;15.73;;;11.98;;
57389;SDS011;43217;52.694;6.214;2023-02-28T06:34:47;14.93;;;12.10;;
57389;SDS011;43217;52.694;6.214;2023-02-28T06:37:12;14.02;;;12.52;;
57389;SDS011;43217;52.694;6.214;2023-02-28T06:39:38;15.10;;;11.80;;
57389;SDS011;43217;52.694;6.214;2023-02-28T06:42:04;13.15;;;10.75;;
57389;SDS011;43217;52.694;6.214;2023-02-28T06:44:30;12.27;;;10.93;;
57389;SDS011;43217;52.694;6.214;2023-02-28T06:47:04;13.07;;;10.85;;
57389;SDS011;43217;52.694;6.214;2023-02-28T06:49:31;15.45;;;11.40;;
57389;SDS011;43217;52.694;6.214;2023-02-28T06:51:58;14.65;;;11.25;;
57389;SDS011;43217;52.694;6.214;2023-02-28T06:54:24;13.75;;;12.23;;
57389;SDS011;43217;52.694;6.214;2023-02-28T06:56:50;16.23;;;12.40;;
57389;SDS011;43217;52.694;6.214;2023-02-28T06:59:16;18.73;;;13.10;;
57389;SDS011;43217;52.694;6.214;2023-02-28T07:01:41;13.68;;;11.38;;
57389;SDS011;43217;52.694;6.214;2023-02-28T07:04:07;13.77;;;11.75;;
57389;SDS011;43217;52.694;6.214;2023-02-28T07:06:33;12.30;;;11.00;;
57389;SDS011;43217;52.694;6.214;2023-02-28T07:08:59;11.23;;;10.10;;
57389;SDS011;43217;52.694;6.214;2023-02-28T07:11:26;11.32;;;9.00;;
57389;SDS011;43217;52.694;6.214;2023-02-28T07:13:53;9.93;;;8.77;;
57389;SDS011;43217;52.694;6.214;2023-02-28T07:16:19;11.38;;;8.38;;
57389;SDS011;43217;52.694;6.214;2023-02-28T07:18:45;9.32;;;7.90;;
57389;SDS011;43217;52.694;6.214;2023-02-28T07:21:13;8.10;;;7.30;;
57389;SDS011;43217;52.694;6.214;2023-02-28T07:23:40;10.48;;;8.23;;
57389;SDS011;43217;52.694;6.214;2023-02-28T07:26:06;8.75;;;7.85;;
57389;SDS011;43217;52.694;6.214;2023-02-28T07:28:37;9.85;;;8.30;;
57389;SDS011;43217;52.694;6.214;2023-02-28T07:31:04;10.82;;;8.20;;
57389;SDS011;43217;52.694;6.214;2023-02-28T07:33:31;10.85;;;8.48;;
57389;SDS011;43217;52.694;6.214;2023-02-28T07:36:04;9.80;;;8.75;;
57389;SDS011;43217;52.694;6.214;2023-02-28T07:38:44;10.35;;;8.23;;
57389;SDS011;43217;52.694;6.214;2023-02-28T07:41:13;8.95;;;7.93;;
57389;SDS011;43217;52.694;6.214;2023-02-28T07:43:40;9.52;;;7.60;;
57389;SDS011;43217;52.694;6.214;2023-02-28T07:46:07;10.35;;;7.80;;
57389;SDS011;43217;52.694;6.214;2023-02-28T07:48:34;8.32;;;7.53;;
57389;SDS011;43217;52.694;6.214;2023-02-28T07:51:00;10.45;;;8.13;;
57389;SDS011;43217;52.694;6.214;2023-02-28T07:53:26;10.68;;;8.43;;
57389;SDS011;43217;52.694;6.214;2023-02-28T07:55:56;9.88;;;8.75;;
57389;SDS011;43217;52.694;6.214;2023-02-28T07:58:24;14.48;;;9.13;;
57389;SDS011;43217;52.694;6.214;2023-02-28T08:00:51;11.95;;;10.10;;
57389;SDS011;43217;52.694;6.214;2023-02-28T08:03:17;10.70;;;9.40;;
57389;SDS011;43217;52.694;6.214;2023-02-28T08:05:44;11.98;;;9.55;;
57389;SDS011;43217;52.694;6.214;2023-02-28T08:08:09;11.73;;;9.88;;
57389;SDS011;43217;52.694;6.214;2023-02-28T08:10:35;11.98;;;10.10;;
57389;SDS011;43217;52.694;6.214;2023-02-28T08:13:02;13.13;;;10.35;;
57389;SDS011;43217;52.694;6.214;2023-02-28T08:15:28;10.63;;;9.55;;
57389;SDS011;43217;52.694;6.214;2023-02-28T08:17:54;11.70;;;9.85;;
57389;SDS011;43217;52.694;6.214;2023-02-28T08:20:21;13.30;;;10.57;;
57389;SDS011;43217;52.694;6.214;2023-02-28T08:22:48;12.15;;;10.90;;
57389;SDS011;43217;52.694;6.214;2023-02-28T08:25:14;11.63;;;10.43;;
57389;SDS011;43217;52.694;6.214;2023-02-28T08:27:39;14.00;;;10.50;;
57389;SDS011;43217;52.694;6.214;2023-02-28T08:30:05;12.18;;;10.35;;
57389;SDS011;43217;52.694;6.214;2023-02-28T08:32:32;12.95;;;10.90;;
57389;SDS011;43217;52.694;6.214;2023-02-28T08:34:58;12.88;;;10.45;;
57389;SDS011;43217;52.694;6.214;2023-02-28T08:37:24;10.82;;;9.60;;
57389;SDS011;43217;52.694;6.214;2023-02-28T08:39:49;14.45;;;11.15;;
57389;SDS011;43217;52.694;6.214;2023-02-28T08:42:15;10.38;;;9.18;;
57389;SDS011;43217;52.694;6.214;2023-02-28T08:44:41;10.02;;;9.00;;
57389;SDS011;43217;52.694;6.214;2023-02-28T08:47:07;9.93;;;8.85;;
57389;SDS011;43217;52.694;6.214;2023-02-28T08:49:32;10.85;;;8.98;;
57389;SDS011;43217;52.694;6.214;2023-02-28T08:51:58;9.80;;;8.80;;
57389;SDS011;43217;52.694;6.214;2023-02-28T08:54:24;9.43;;;8.50;;
57389;SDS011;43217;52.694;6.214;2023-02-28T08:56:50;7.75;;;6.95;;
57389;SDS011;43217;52.694;6.214;2023-02-28T08:59:15;8.05;;;7.28;;
57389;SDS011;43217;52.694;6.214;2023-02-28T09:01:41;7.00;;;6.30;;
57389;SDS011;43217;52.694;6.214;2023-02-28T09:04:08;7.13;;;6.38;;
57389;SDS011;43217;52.694;6.214;2023-02-28T09:06:35;6.60;;;6.00;;
57389;SDS011;43217;52.694;6.214;2023-02-28T09:09:01;6.65;;;5.60;;
57389;SDS011;43217;52.694;6.214;2023-02-28T09:11:29;9.05;;;6.40;;
57389;SDS011;43217;52.694;6.214;2023-02-28T09:13:55;6.57;;;5.88;;
57389;SDS011;43217;52.694;6.214;2023-02-28T09:16:20;6.70;;;6.10;;
57389;SDS011;43217;52.694;6.214;2023-02-28T09:18:46;11.98;;;10.70;;
57389;SDS011;43217;52.694;6.214;2023-02-28T09:21:13;15.88;;;13.73;;
57389;SDS011;43217;52.694;6.214;2023-02-28T09:23:44;16.20;;;13.80;;
57389;SDS011;43217;52.694;6.214;2023-02-28T09:26:13;6.07;;;5.20;;
57389;SDS011;43217;52.694;6.214;2023-02-28T09:28:40;10.20;;;9.00;;
57389;SDS011;43217;52.694;6.214;2023-02-28T09:31:06;7.80;;;6.45;;
57389;SDS011;43217;52.694;6.214;2023-02-28T09:33:36;8.30;;;5.32;;
57389;SDS011;43217;52.694;6.214;2023-02-28T09:36:02;6.15;;;5.20;;
57389;SDS011;43217;52.694;6.214;2023-02-28T09:38:29;9.77;;;8.77;;
57389;SDS011;43217;52.694;6.214;2023-02-28T09:43:23;7.90;;;7.18;;
57389;SDS011;43217;52.694;6.214;2023-02-28T09:45:53;7.50;;;6.80;;
57389;SDS011;43217;52.694;6.214;2023-02-28T09:48:31;7.20;;;6.50;;
57389;SDS011;43217;52.694;6.214;2023-02-28T09:53:58;5.63;;;5.07;;
57389;SDS011;43217;52.694;6.214;2023-02-28T09:56:25;8.48;;;6.80;;
57389;SDS011;43217;52.694;6.214;2023-02-28T10:02:03;5.80;;;4.80;;
57389;SDS011;43217;52.694;6.214;2023-02-28T10:04:47;4.75;;;4.35;;
57389;SDS011;43217;52.694;6.214;2023-02-28T10:10:47;5.30;;;4.65;;
57389;SDS011;43217;52.694;6.214;2023-02-28T10:15:50;5.13;;;4.47;;
57389;SDS011;43217;52.694;6.214;2023-02-28T10:18:21;7.13;;;4.55;;
57389;SDS011;43217;52.694;6.214;2023-02-28T10:20:50;9.25;;;7.20;;
57389;SDS011;43217;52.694;6.214;2023-02-28T10:23:21;8.25;;;6.13;;
57389;SDS011;43217;52.694;6.214;2023-02-28T10:25:56;4.40;;;3.80;;
57389;SDS011;43217;52.694;6.214;2023-02-28T10:28:30;5.93;;;3.90;;
57389;SDS011;43217;52.694;6.214;2023-02-28T10:30:56;5.18;;;4.38;;
57389;SDS011;43217;52.694;6.214;2023-02-28T10:33:24;5.70;;;4.38;;
57389;SDS011;43217;52.694;6.214;2023-02-28T10:35:54;4.40;;;3.75;;
57389;SDS011;43217;52.694;6.214;2023-02-28T10:38:21;5.70;;;3.95;;
57389;SDS011;43217;52.694;6.214;2023-02-28T10:40:51;4.47;;;3.60;;
57389;SDS011;43217;52.694;6.214;2023-02-28T10:45:55;4.95;;;3.35;;
57389;SDS011;43217;52.694;6.214;2023-02-28T10:50:56;3.30;;;3.00;;
57389;SDS011;43217;52.694;6.214;2023-02-28T10:55:59;2.30;;;2.08;;
57389;SDS011;43217;52.694;6.214;2023-02-28T11:01:18;2.40;;;2.20;;
57389;SDS011;43217;52.694;6.214;2023-02-28T11:03:50;2.47;;;1.92;;
57389;SDS011;43217;52.694;6.214;2023-02-28T11:06:21;3.05;;;2.17;;
57389;SDS011;43217;52.694;6.214;2023-02-28T11:09:00;2.25;;;2.05;;
57389;SDS011;43217;52.694;6.214;2023-02-28T11:11:31;2.53;;;2.10;;
57389;SDS011;43217;52.694;6.214;2023-02-28T11:14:15;2.35;;;2.15;;
57389;SDS011;43217;52.694;6.214;2023-02-28T11:19:17;3.38;;;2.60;;
57389;SDS011;43217;52.694;6.214;2023-02-28T11:21:57;3.42;;;2.42;;
57389;SDS011;43217;52.694;6.214;2023-02-28T11:24:29;2.55;;;2.35;;
57389;SDS011;43217;52.694;6.214;2023-02-28T11:27:14;2.60;;;2.40;;
57389;SDS011;43217;52.694;6.214;2023-02-28T11:29:56;4.28;;;2.80;;
57389;SDS011;43217;52.694;6.214;2023-02-28T11:32:23;2.60;;;2.40;;
57389;SDS011;43217;52.694;6.214;2023-02-28T11:37:36;3.45;;;2.72;;
57389;SDS011;43217;52.694;6.214;2023-02-28T11:40:05;2.45;;;2.25;;
57389;SDS011;43217;52.694;6.214;2023-02-28T11:42:43;3.35;;;2.35;;
57389;SDS011;43217;52.694;6.214;2023-02-28T11:48:10;3.42;;;2.33;;
57389;SDS011;43217;52.694;6.214;2023-02-28T11:51:17;3.65;;;2.60;;
57389;SDS011;43217;52.694;6.214;2023-02-28T11:57:00;2.97;;;2.58;;
57389;SDS011;43217;52.694;6.214;2023-02-28T12:02:29;4.05;;;3.10;;
57389;SDS011;43217;52.694;6.214;2023-02-28T12:05:19;2.60;;;2.40;;
57389;SDS011;43217;52.694;6.214;2023-02-28T12:19:13;5.22;;;3.00;;
57389;SDS011;43217;52.694;6.214;2023-02-28T12:28:13;2.63;;;2.42;;
57389;SDS011;43217;52.694;6.214;2023-02-28T12:30:46;3.05;;;2.70;;
57389;SDS011;43217;52.694;6.214;2023-02-28T12:33:17;2.63;;;2.13;;
57389;SDS011;43217;52.694;6.214;2023-02-28T12:35:54;2.50;;;2.30;;
57389;SDS011;43217;52.694;6.214;2023-02-28T12:38:34;2.53;;;2.33;;
57389;SDS011;43217;52.694;6.214;2023-02-28T12:41:12;2.43;;;2.23;;
57389;SDS011;43217;52.694;6.214;2023-02-28T12:43:44;2.60;;;2.40;;
57389;SDS011;43217;52.694;6.214;2023-02-28T12:46:26;2.60;;;2.40;;
57389;SDS011;43217;52.694;6.214;2023-02-28T12:48:58;2.47;;;2.08;;
57389;SDS011;43217;52.694;6.214;2023-02-28T12:51:30;2.83;;;2.13;;
57389;SDS011;43217;52.694;6.214;2023-02-28T12:56:56;2.30;;;2.10;;
57389;SDS011;43217;52.694;6.214;2023-02-28T13:10:53;3.03;;;2.13;;
57389;SDS011;43217;52.694;6.214;2023-02-28T13:13:22;3.63;;;2.22;;
57389;SDS011;43217;52.694;6.214;2023-02-28T13:16:02;2.63;;;2.38;;
57389;SDS011;43217;52.694;6.214;2023-02-28T13:20:57;2.42;;;2.22;;
57389;SDS011;43217;52.694;6.214;2023-02-28T13:26:11;2.33;;;2.13;;
57389;SDS011;43217;52.694;6.214;2023-02-28T13:28:57;2.05;;;1.90;;
57389;SDS011;43217;52.694;6.214;2023-02-28T13:32:31;2.30;;;2.10;;
57389;SDS011;43217;52.694;6.214;2023-02-28T13:45:22;2.50;;;2.30;;
57389;SDS011;43217;52.694;6.214;2023-02-28T13:47:52;2.58;;;2.10;;
57389;SDS011;43217;52.694;6.214;2023-02-28T14:01:16;3.05;;;2.30;;
57389;SDS011;43217;52.694;6.214;2023-02-28T14:06:59;2.33;;;2.10;;
57389;SDS011;43217;52.694;6.214;2023-02-28T14:09:27;2.70;;;2.30;;
57389;SDS011;43217;52.694;6.214;2023-02-28T14:18:05;3.05;;;2.58;;
57389;SDS011;43217;52.694;6.214;2023-02-28T14:20:39;3.45;;;2.90;;
57389;SDS011;43217;52.694;6.214;2023-02-28T14:25:57;3.03;;;2.30;;
57389;SDS011;43217;52.694;6.214;2023-02-28T14:31:13;4.45;;;2.58;;
57389;SDS011;43217;52.694;6.214;2023-02-28T14:36:37;3.13;;;2.40;;
57389;SDS011;43217;52.694;6.214;2023-02-28T14:39:15;3.60;;;2.80;;
57389;SDS011;43217;52.694;6.214;2023-02-28T14:41:44;2.63;;;2.42;;
57389;SDS011;43217;52.694;6.214;2023-02-28T14:44:20;2.90;;;2.53;;
57389;SDS011;43217;52.694;6.214;2023-02-28T14:46:48;3.72;;;3.22;;
57389;SDS011;43217;52.694;6.214;2023-02-28T14:54:37;3.53;;;2.63;;
57389;SDS011;43217;52.694;6.214;2023-02-28T14:57:04;3.10;;;2.87;;
57389;SDS011;43217;52.694;6.214;2023-02-28T14:59:34;3.88;;;2.58;;
57389;SDS011;43217;52.694;6.214;2023-02-28T15:04:52;4.18;;;2.80;;
57389;SDS011;43217;52.694;6.214;2023-02-28T15:07:19;2.88;;;2.60;;
57389;SDS011;43217;52.694;6.214;2023-02-28T15:10:06;2.70;;;2.50;;
57389;SDS011;43217;52.694;6.214;2023-02-28T15:12:58;2.90;;;2.70;;
57389;SDS011;43217;52.694;6.214;2023-02-28T15:15:33;3.03;;;2.72;;
57389;SDS011;43217;52.694;6.214;2023-02-28T15:18:03;2.90;;;2.65;;
57389;SDS011;43217;52.694;6.214;2023-02-28T15:20:31;2.95;;;2.65;;
57389;SDS011;43217;52.694;6.214;2023-02-28T15:22:57;3.13;;;2.90;;
57389;SDS011;43217;52.694;6.214;2023-02-28T15:25:24;2.95;;;2.55;;
57389;SDS011;43217;52.694;6.214;2023-02-28T15:27:54;2.80;;;2.60;;
57389;SDS011;43217;52.694;6.214;2023-02-28T15:30:26;2.92;;;2.72;;
57389;SDS011;43217;52.694;6.214;2023-02-28T15:35:38;3.63;;;2.75;;
57389;SDS011;43217;52.694;6.214;2023-02-28T15:40:56;3.42;;;3.13;;
57389;SDS011;43217;52.694;6.214;2023-02-28T15:43:24;4.50;;;3.42;;
57389;SDS011;43217;52.694;6.214;2023-02-28T15:46:01;3.38;;;2.95;;
57389;SDS011;43217;52.694;6.214;2023-02-28T15:48:45;3.55;;;3.20;;
57389;SDS011;43217;52.694;6.214;2023-02-28T15:51:18;4.13;;;3.55;;
57389;SDS011;43217;52.694;6.214;2023-02-28T15:53:51;4.22;;;3.83;;
57389;SDS011;43217;52.694;6.214;2023-02-28T15:56:29;3.75;;;3.35;;
57389;SDS011;43217;52.694;6.214;2023-02-28T15:58:57;3.72;;;3.42;;
57389;SDS011;43217;52.694;6.214;2023-02-28T16:01:32;4.32;;;3.78;;
57389;SDS011;43217;52.694;6.214;2023-02-28T16:04:04;4.78;;;4.25;;
57389;SDS011;43217;52.694;6.214;2023-02-28T16:06:32;3.97;;;3.67;;
57389;SDS011;43217;52.694;6.214;2023-02-28T16:08:58;3.78;;;3.47;;
57389;SDS011;43217;52.694;6.214;2023-02-28T16:11:24;3.65;;;3.40;;
57389;SDS011;43217;52.694;6.214;2023-02-28T16:13:51;8.13;;;7.63;;
57389;SDS011;43217;52.694;6.214;2023-02-28T16:16:22;6.70;;;4.30;;
57389;SDS011;43217;52.694;6.214;2023-02-28T16:18:49;4.68;;;4.28;;
57389;SDS011;43217;52.694;6.214;2023-02-28T16:21:16;3.60;;;3.30;;
57389;SDS011;43217;52.694;6.214;2023-02-28T16:23:41;7.85;;;6.22;;
57389;SDS011;43217;52.694;6.214;2023-02-28T16:26:07;3.80;;;3.50;;
57389;SDS011;43217;52.694;6.214;2023-02-28T16:28:35;4.15;;;3.83;;
57389;SDS011;43217;52.694;6.214;2023-02-28T16:31:04;4.30;;;3.90;;
57389;SDS011;43217;52.694;6.214;2023-02-28T16:33:32;5.38;;;4.93;;
57389;SDS011;43217;52.694;6.214;2023-02-28T16:35:59;4.70;;;4.30;;
57389;SDS011;43217;52.694;6.214;2023-02-28T16:38:25;4.68;;;4.28;;
57389;SDS011;43217;52.694;6.214;2023-02-28T16:40:51;5.13;;;4.18;;
57389;SDS011;43217;52.694;6.214;2023-02-28T16:43:20;4.95;;;4.55;;
57389;SDS011;43217;52.694;6.214;2023-02-28T16:45:50;5.88;;;5.38;;
57389;SDS011;43217;52.694;6.214;2023-02-28T16:48:21;5.82;;;5.28;;
57389;SDS011;43217;52.694;6.214;2023-02-28T16:50:47;6.55;;;5.95;;
57389;SDS011;43217;52.694;6.214;2023-02-28T16:53:12;7.32;;;6.30;;
57389;SDS011;43217;52.694;6.214;2023-02-28T16:55:38;7.20;;;6.50;;
57389;SDS011;43217;52.694;6.214;2023-02-28T16:58:04;6.53;;;5.93;;
57389;SDS011;43217;52.694;6.214;2023-02-28T17:00:30;10.10;;;9.20;;
57389;SDS011;43217;52.694;6.214;2023-02-28T17:02:57;11.05;;;9.93;;
57389;SDS011;43217;52.694;6.214;2023-02-28T17:05:24;13.82;;;12.25;;
57389;SDS011;43217;52.694;6.214;2023-02-28T17:07:51;17.38;;;15.57;;
57389;SDS011;43217;52.694;6.214;2023-02-28T17:10:18;16.17;;;14.32;;
57389;SDS011;43217;52.694;6.214;2023-02-28T17:12:46;12.25;;;10.75;;
57389;SDS011;43217;52.694;6.214;2023-02-28T17:15:13;23.60;;;21.00;;
57389;SDS011;43217;52.694;6.214;2023-02-28T17:17:41;21.48;;;19.17;;
57389;SDS011;43217;52.694;6.214;2023-02-28T17:20:28;10.13;;;9.20;;
57389;SDS011;43217;52.694;6.214;2023-02-28T17:22:53;13.65;;;12.35;;
57389;SDS011;43217;52.694;6.214;2023-02-28T17:25:20;16.88;;;14.23;;
57389;SDS011;43217;52.694;6.214;2023-02-28T17:27:46;21.48;;;19.15;;
57389;SDS011;43217;52.694;6.214;2023-02-28T17:32:43;12.38;;;10.68;;
57389;SDS011;43217;52.694;6.214;2023-02-28T17:35:08;11.63;;;10.43;;
57389;SDS011;43217;52.694;6.214;2023-02-28T17:37:34;10.55;;;9.55;;
57389;SDS011;43217;52.694;6.214;2023-02-28T17:40:00;10.55;;;9.45;;
57389;SDS011;43217;52.694;6.214;2023-02-28T17:42:26;8.68;;;7.88;;